Архив погоды в Гунибе

Метеограмма Гуниб
Пятница, 24 Мая
Время местн. Темп Ветер Видим Явления Облачность нижн/средн/верх Атм. давл. Влжн Точка росы ВНГО R Сост. почвы Tg s
Напр Скр Прв ур.ст ур.м изм
09:00 +13.9° В 1 - 50 км - переменная облачность 643 636 -0.2 55% +5.1° - - - - -
06:00 +10.1° штиль 0 - 50 км - ясно 644 636 +0.2 64% +3.5° более 2.5 км - Влажная (без луж) - -
03:00 +8° З,С-З 2 - 10 км - ясно 643 636 -0.2 77% +4.2° более 2.5 км - - - -
00:00 +10.7° З 1 - 10 км - облачно 644 636 +0.4 63% +4° - - - - -
Четверг, 23 Мая
Время местн. Темп Ветер Видим Явления Облачность нижн/средн/верх Атм. давл. Влжн Точка росы ВНГО R Сост. почвы Tg s
Напр Скр Прв ур.ст ур.м изм
21:00 +12.9° В 2 - 10 км - облачно 643 635 +1.1 47% +1.9° - - - - -
18:00 +13.8° Ю 1 - 50 км - облачно с прояснениями 642 634 0 66% +7.6° 1 км - - - -
15:00 +15.5° З,С-З 1 - 50 км - облачно 642 635 -0.5 63% +8.5° 1 км - - - -
12:00 +16.9° Ю,Ю-З 1 - 50 км - облачно 642 635 -0.8 53% +7.2° 1 км - - - -
09:00 +14.6° Ю,Ю-В 1 - 50 км - преимущественно облачно 643 636 -0.2 69% +9° 1 км - - - -
06:00 +10.8° штиль 0 - 50 км - преимущественно облачно 643 636 -0.4 84% +8.2° более 2.5 км - Сырая (есть малые или большие лужи) - -
03:00 +8.8° З,С-З 2 - 10 км облака рассеиваются {гроза, ливневые осадки} переменная облачность 644 636 -0.8 88% +7° - - - - -
00:00 +10.5° З,С-З 2 - 10 км слабый ливневый дождь {гроза} облачно 645 637 +0.5 96% +9.9° 1 км - - - -
Среда, 22 Мая
Время местн. Темп Ветер Видим Явления Облачность нижн/средн/верх Атм. давл. Влжн Точка росы ВНГО R Сост. почвы Tg s
Напр Скр Прв ур.ст ур.м изм
21:00 +10.2° З 3 - 10 км слабая или умеренная гроза с осадками облачно 644 637 +1.6 94% +9.2° 1 км - - - -
18:00 +17.8° З 4 - 50 км - преимущественно облачно 643 635 +0.4 47% +6.3° 1 км - - - -
15:00 +21° В,Ю-В 4 - 50 км - облачно с прояснениями 642 635 -1.1 36% +5.3° 1 км - - - -
12:00 +20° Ю-В 2 - 50 км - переменная облачность 643 636 -1.4 42% +6.7° более 2.5 км - - - -
09:00 +16.1° В,Ю-В 1 - 50 км - переменная облачность 645 637 -1 57% +7.5° более 2.5 км - - - -
06:00 +10.7° штиль 0 - 50 км - ясно 646 638 -0.5 73% +6.1° более 2.5 км - Влажная (без луж) - -
03:00 +7.8° З,С-З 1 - 10 км - ясно 646 638 -0.8 92% +6.6° более 2.5 км - - - -
00:00 +9.3° З,С-З 1 - 10 км - ясно 647 639 -0.4 83% +6.5° более 2.5 км - - - -
Вторник, 21 Мая
Время местн. Темп Ветер Видим Явления Облачность нижн/средн/верх Атм. давл. Влжн Точка росы ВНГО R Сост. почвы Tg s
Напр Скр Прв ур.ст ур.м изм
21:00 +10.9° З,С-З 4 - 10 км - переменная облачность 647 639 +0.2 77% +7° 1 км - - - -
18:00 +14.2° З 1 - 50 км - преимущественно облачно 647 639 +0.3 63% +7.2° 1 км - - - -
15:00 +16.1° Ю,Ю-В 2 - 20 км - облачно с прояснениями 647 639 -0.3 57% +7.7° 1 км - - - -
12:00 +14.7° Ю-В 2 - 20 км - облачно 647 639 +0.1 58% +6.5° 1 км - - - -
09:00 +11.9° Ю,Ю-В 1 - 20 км - облачно 647 639 +0.4 85% +9.4° 1 км - - - -
06:00 +9.7° штиль 0 - 50 км - облачно 647 639 +0.5 93% +8.6° 1 км - Влажная (без луж) - -